Vulcan, Canada
Current Conditions -  °F | °C
As of 9:00 AM on Tuesday 21 Oct 2014 (Local Time) from CYQL Reporting Station
Overcast Overcast  
Wind Chill: 11°   Ceiling: 15000
Heat Index: 11°   Visibility: 25mi
Dew Point:   Wind: 8mph
Humidity: 62%   Direction: 250°WSW
Pressure: 29.65"   Gusts: NA
Location:  50.4°N, 113.25°W
Report Text: CYQL 211500Z 25007KT 25SM BKN150 OVC220 11/04 A2965 RMK AC6CI2 SLP045 DENSITY ALT 3600FT
Loading
Personal Weather Stations






























Interactive Weather Map
Tropical Storm Tracking
New forecast layout! Learn more

10-Day Weather Forecast

Advertisements
Track Severe Weather on mobile